Airfield :
LOGIN :

Register | Disclaimer

   EN    FR    IT 

 










Legend :    VFR   Marginal VFR   IFR   Intensive IFR   Very Intensive IFR
Visi :
Ceiling :
>= 8 km
>= 3000ft
5 to 8 km
1000 to 3000 ft
1500m to 5 km
500 to 1000 ft
800 to 1500m
200 to 500 ft
< 800m
< 200 ft
Symbols :   Thunderstorms  Fog  Heavy snow  Heavy precipitations  Wind > 20 kt
SIGMETs :     Misc.  Thunderstorms  Icing  Turbulence  Mountain Waves  Volcanic Ashes






- Airport Elevation : -13 ft
- IATA code : LEY


EHLE - Lelystad

CURRENT METAR :
  • 122055Z AUTO 30006KT 9999 FEW032 14/09 Q1025

EXPIRED METARs :
  • 122025Z AUTO 32007KT 9999 FEW029 14/09 Q1025
  • 121955Z AUTO 33009KT 300V360 9999 FEW030 SCT038 15/08 Q1024 NOSIG
  • 121925Z AUTO 34008KT 310V010 9999 BKN036 15/09 Q1024 NOSIG
  • 121855Z AUTO 33009KT 300V360 9999 SCT030 BKN037 16/09 Q1024 NOSIG
  • 121825Z AUTO 34010KT 310V020 9999 BKN031 BKN036 16/09 Q1024 NOSIG
  • 121755Z AUTO 33011KT 290V010 9999 BKN031 BKN039 16/09 Q1024 NOSIG

TAF TAF EHLE
Valid from the 12 at 18:00 until the 14 at 00:00 UTC


121649Z 1218/1324 31009KT CAVOK



MET'MAP, your aeronautical weather chart ! - Copyright ORBIFLY December 2007 - Disclaimer

ORBIFLY MET'MAP TEAM :

Programming & Development : Alexandra Zaïnal
Concept & original design : Baudouin d'Aumeries
Assistance for programming : Marc-Olivier Méhu
Technical & hardware support : Manuel Goepfert

Contact : metmap@orbifly.com




SOURCES & CREDITS :

   NOAA